Albany, New York
Traffic Map
Current Weather Conditions
Albany, New York
Broken Clouds
Broken Clouds
88°
Feels Like: 88°
Wind Chill: 88° Ceiling: 25000
Heat Index: 88° Visibility: 10mi
Dew Point: 62° Wind: 12mph
Humidity: 42% Direction: 150° (SSE)
Pressure: 29.73in Gusts: 22mph
Raw Report DataKALB 031651Z 15010G19KT 10SM SCT060 SCT080 SCT140 BKN250 31/17 A2973 RMK AO2 SLP066 T03110167
Traffic Incident Summary
Active as of:
Severity:
Category:
InformationThere was an issue retrieving the traffic information for this location. Please try a different location or try again shortly.
Advertisements
Track Severe Weather on mobile